sensor_id;sensor_type;location;lat;lon;timestamp;temperature;humidity
21815;DHT22;11069;48.988;8.450;2023-07-29T00:00:51;16.90;99.90
21815;DHT22;11069;48.988;8.450;2023-07-29T00:03:16;17.00;99.90
21815;DHT22;11069;48.988;8.450;2023-07-29T00:05:42;16.90;99.90
21815;DHT22;11069;48.988;8.450;2023-07-29T00:08:08;17.00;99.90
21815;DHT22;11069;48.988;8.450;2023-07-29T00:10:36;17.10;99.90
21815;DHT22;11069;48.988;8.450;2023-07-29T00:13:03;17.10;99.90
21815;DHT22;11069;48.988;8.450;2023-07-29T00:15:28;17.10;99.90
21815;DHT22;11069;48.988;8.450;2023-07-29T00:17:54;17.10;99.90
21815;DHT22;11069;48.988;8.450;2023-07-29T00:20:19;17.30;99.90
21815;DHT22;11069;48.988;8.450;2023-07-29T00:22:45;17.30;99.90
21815;DHT22;11069;48.988;8.450;2023-07-29T00:25:10;17.30;99.90
21815;DHT22;11069;48.988;8.450;2023-07-29T00:27:36;17.30;99.90
21815;DHT22;11069;48.988;8.450;2023-07-29T00:30:01;17.30;99.90
21815;DHT22;11069;48.988;8.450;2023-07-29T00:32:29;17.30;99.90
21815;DHT22;11069;48.988;8.450;2023-07-29T00:34:55;17.30;99.90
21815;DHT22;11069;48.988;8.450;2023-07-29T00:37:21;17.30;99.90
21815;DHT22;11069;48.988;8.450;2023-07-29T00:39:46;17.30;99.90
21815;DHT22;11069;48.988;8.450;2023-07-29T00:42:12;17.40;99.90
21815;DHT22;11069;48.988;8.450;2023-07-29T00:44:37;17.40;99.90
21815;DHT22;11069;48.988;8.450;2023-07-29T00:47:04;17.40;99.90
21815;DHT22;11069;48.988;8.450;2023-07-29T00:49:31;17.40;99.90
21815;DHT22;11069;48.988;8.450;2023-07-29T00:51:57;17.50;99.90
21815;DHT22;11069;48.988;8.450;2023-07-29T00:54:23;17.40;99.90
21815;DHT22;11069;48.988;8.450;2023-07-29T00:56:49;17.40;99.90
21815;DHT22;11069;48.988;8.450;2023-07-29T00:59:15;17.30;99.90
21815;DHT22;11069;48.988;8.450;2023-07-29T01:01:40;17.30;99.90
21815;DHT22;11069;48.988;8.450;2023-07-29T01:04:06;17.30;99.90
21815;DHT22;11069;48.988;8.450;2023-07-29T01:09:17;17.30;99.90
21815;DHT22;11069;48.988;8.450;2023-07-29T01:12:12;17.20;99.90
21815;DHT22;11069;48.988;8.450;2023-07-29T01:17:13;17.30;99.90
21815;DHT22;11069;48.988;8.450;2023-07-29T01:19:58;17.20;99.90
21815;DHT22;11069;48.988;8.450;2023-07-29T01:22:26;17.10;99.90
21815;DHT22;11069;48.988;8.450;2023-07-29T01:24:52;17.10;99.90
21815;DHT22;11069;48.988;8.450;2023-07-29T01:27:17;17.00;99.90
21815;DHT22;11069;48.988;8.450;2023-07-29T01:29:43;16.90;99.90
21815;DHT22;11069;48.988;8.450;2023-07-29T01:32:19;16.90;99.90
21815;DHT22;11069;48.988;8.450;2023-07-29T01:34:48;16.80;99.90
21815;DHT22;11069;48.988;8.450;2023-07-29T01:37:21;16.80;99.90
21815;DHT22;11069;48.988;8.450;2023-07-29T01:39:49;16.70;99.90
21815;DHT22;11069;48.988;8.450;2023-07-29T01:42:16;16.70;99.90
21815;DHT22;11069;48.988;8.450;2023-07-29T01:44:42;16.80;99.90
21815;DHT22;11069;48.988;8.450;2023-07-29T01:47:08;16.80;99.90
21815;DHT22;11069;48.988;8.450;2023-07-29T01:49:34;16.70;99.90
21815;DHT22;11069;48.988;8.450;2023-07-29T01:51:59;16.80;99.90
21815;DHT22;11069;48.988;8.450;2023-07-29T01:54:25;16.70;99.90
21815;DHT22;11069;48.988;8.450;2023-07-29T01:56:50;16.70;99.90
21815;DHT22;11069;48.988;8.450;2023-07-29T01:59:16;16.70;99.90
21815;DHT22;11069;48.988;8.450;2023-07-29T02:01:42;16.80;99.90
21815;DHT22;11069;48.988;8.450;2023-07-29T02:04:08;16.70;99.90
21815;DHT22;11069;48.988;8.450;2023-07-29T02:06:33;16.70;99.90
21815;DHT22;11069;48.988;8.450;2023-07-29T02:08:59;16.80;99.90
21815;DHT22;11069;48.988;8.450;2023-07-29T02:11:25;16.80;99.90
21815;DHT22;11069;48.988;8.450;2023-07-29T02:13:53;16.70;99.90
21815;DHT22;11069;48.988;8.450;2023-07-29T02:16:19;16.80;99.90
21815;DHT22;11069;48.988;8.450;2023-07-29T02:18:44;16.80;99.90
21815;DHT22;11069;48.988;8.450;2023-07-29T02:21:10;16.80;99.90
21815;DHT22;11069;48.988;8.450;2023-07-29T02:23:35;16.80;99.90
21815;DHT22;11069;48.988;8.450;2023-07-29T02:26:01;16.80;99.90
21815;DHT22;11069;48.988;8.450;2023-07-29T02:28:26;16.90;99.90
21815;DHT22;11069;48.988;8.450;2023-07-29T02:31:21;16.90;99.90
21815;DHT22;11069;48.988;8.450;2023-07-29T02:33:47;16.90;99.90
21815;DHT22;11069;48.988;8.450;2023-07-29T02:36:14;16.90;99.90
21815;DHT22;11069;48.988;8.450;2023-07-29T02:38:40;16.90;99.90
21815;DHT22;11069;48.988;8.450;2023-07-29T02:41:06;16.90;99.90
21815;DHT22;11069;48.988;8.450;2023-07-29T02:43:31;16.90;99.90
21815;DHT22;11069;48.988;8.450;2023-07-29T02:45:57;17.00;99.90
21815;DHT22;11069;48.988;8.450;2023-07-29T02:48:22;17.00;99.90
21815;DHT22;11069;48.988;8.450;2023-07-29T02:50:48;17.00;99.90
21815;DHT22;11069;48.988;8.450;2023-07-29T02:53:14;17.10;99.90
21815;DHT22;11069;48.988;8.450;2023-07-29T02:55:40;17.10;99.90
21815;DHT22;11069;48.988;8.450;2023-07-29T02:58:06;17.10;99.90
21815;DHT22;11069;48.988;8.450;2023-07-29T03:00:32;17.20;99.90
21815;DHT22;11069;48.988;8.450;2023-07-29T03:02:58;17.10;99.90
21815;DHT22;11069;48.988;8.450;2023-07-29T03:05:24;17.10;99.90
21815;DHT22;11069;48.988;8.450;2023-07-29T03:07:49;17.10;99.90
21815;DHT22;11069;48.988;8.450;2023-07-29T03:10:15;17.10;99.90
21815;DHT22;11069;48.988;8.450;2023-07-29T03:12:40;17.10;99.90
21815;DHT22;11069;48.988;8.450;2023-07-29T03:15:06;17.10;99.90
21815;DHT22;11069;48.988;8.450;2023-07-29T03:17:32;17.10;99.90
21815;DHT22;11069;48.988;8.450;2023-07-29T03:19:58;17.10;99.90
21815;DHT22;11069;48.988;8.450;2023-07-29T03:22:23;17.10;99.90
21815;DHT22;11069;48.988;8.450;2023-07-29T03:24:49;17.00;99.90
21815;DHT22;11069;48.988;8.450;2023-07-29T03:27:14;17.00;99.90
21815;DHT22;11069;48.988;8.450;2023-07-29T03:29:41;16.90;99.90
21815;DHT22;11069;48.988;8.450;2023-07-29T03:32:07;17.00;99.90
21815;DHT22;11069;48.988;8.450;2023-07-29T03:34:32;17.00;99.90
21815;DHT22;11069;48.988;8.450;2023-07-29T03:36:59;17.00;99.90
21815;DHT22;11069;48.988;8.450;2023-07-29T03:39:25;17.00;99.90
21815;DHT22;11069;48.988;8.450;2023-07-29T03:41:51;17.00;99.90
21815;DHT22;11069;48.988;8.450;2023-07-29T03:44:16;17.00;99.90
21815;DHT22;11069;48.988;8.450;2023-07-29T03:46:44;17.00;99.90
21815;DHT22;11069;48.988;8.450;2023-07-29T03:49:09;17.10;99.90
21815;DHT22;11069;48.988;8.450;2023-07-29T03:51:35;17.10;99.90
21815;DHT22;11069;48.988;8.450;2023-07-29T03:54:00;17.10;99.90
21815;DHT22;11069;48.988;8.450;2023-07-29T03:56:26;17.20;99.90
21815;DHT22;11069;48.988;8.450;2023-07-29T03:58:52;17.20;99.90
21815;DHT22;11069;48.988;8.450;2023-07-29T04:01:18;17.20;99.90
21815;DHT22;11069;48.988;8.450;2023-07-29T04:03:45;17.20;99.90
21815;DHT22;11069;48.988;8.450;2023-07-29T04:06:11;17.30;99.90
21815;DHT22;11069;48.988;8.450;2023-07-29T04:08:37;17.20;99.90
21815;DHT22;11069;48.988;8.450;2023-07-29T04:11:03;17.20;99.90
21815;DHT22;11069;48.988;8.450;2023-07-29T04:13:28;17.30;99.90
21815;DHT22;11069;48.988;8.450;2023-07-29T04:15:54;17.30;99.90
21815;DHT22;11069;48.988;8.450;2023-07-29T04:18:20;17.30;99.90
21815;DHT22;11069;48.988;8.450;2023-07-29T04:20:45;17.30;99.90
21815;DHT22;11069;48.988;8.450;2023-07-29T04:23:11;17.30;99.90
21815;DHT22;11069;48.988;8.450;2023-07-29T04:25:36;17.30;99.90
21815;DHT22;11069;48.988;8.450;2023-07-29T04:28:02;17.40;99.90
21815;DHT22;11069;48.988;8.450;2023-07-29T04:30:28;17.30;99.90
21815;DHT22;11069;48.988;8.450;2023-07-29T04:32:54;17.40;99.90
21815;DHT22;11069;48.988;8.450;2023-07-29T04:35:20;17.40;99.90
21815;DHT22;11069;48.988;8.450;2023-07-29T04:37:45;17.40;99.90
21815;DHT22;11069;48.988;8.450;2023-07-29T04:40:13;17.50;99.90
21815;DHT22;11069;48.988;8.450;2023-07-29T04:42:39;17.40;99.90
21815;DHT22;11069;48.988;8.450;2023-07-29T04:45:05;17.40;99.90
21815;DHT22;11069;48.988;8.450;2023-07-29T04:47:31;17.50;99.90
21815;DHT22;11069;48.988;8.450;2023-07-29T04:49:56;17.40;99.90
21815;DHT22;11069;48.988;8.450;2023-07-29T04:52:22;17.40;99.90
21815;DHT22;11069;48.988;8.450;2023-07-29T04:54:47;17.40;99.90
21815;DHT22;11069;48.988;8.450;2023-07-29T04:57:13;17.50;99.90
21815;DHT22;11069;48.988;8.450;2023-07-29T04:59:38;17.50;99.90
21815;DHT22;11069;48.988;8.450;2023-07-29T05:02:04;17.50;99.90
21815;DHT22;11069;48.988;8.450;2023-07-29T05:04:30;17.50;99.90
21815;DHT22;11069;48.988;8.450;2023-07-29T05:06:56;17.50;99.90
21815;DHT22;11069;48.988;8.450;2023-07-29T05:09:21;17.60;99.90
21815;DHT22;11069;48.988;8.450;2023-07-29T05:11:47;17.60;99.90
21815;DHT22;11069;48.988;8.450;2023-07-29T05:14:17;17.70;99.90
21815;DHT22;11069;48.988;8.450;2023-07-29T05:16:43;17.70;99.90
21815;DHT22;11069;48.988;8.450;2023-07-29T05:19:08;17.70;99.90
21815;DHT22;11069;48.988;8.450;2023-07-29T05:21:34;17.80;99.90
21815;DHT22;11069;48.988;8.450;2023-07-29T05:24:00;17.80;99.90
21815;DHT22;11069;48.988;8.450;2023-07-29T05:26:25;17.90;99.90
21815;DHT22;11069;48.988;8.450;2023-07-29T05:28:51;17.90;99.90
21815;DHT22;11069;48.988;8.450;2023-07-29T05:31:17;17.90;99.90
21815;DHT22;11069;48.988;8.450;2023-07-29T05:33:43;18.00;99.90
21815;DHT22;11069;48.988;8.450;2023-07-29T05:36:08;18.00;99.90
21815;DHT22;11069;48.988;8.450;2023-07-29T05:38:34;18.10;99.90
21815;DHT22;11069;48.988;8.450;2023-07-29T05:40:59;18.20;99.90
21815;DHT22;11069;48.988;8.450;2023-07-29T05:43:26;18.30;99.90
21815;DHT22;11069;48.988;8.450;2023-07-29T05:45:52;18.40;99.90
21815;DHT22;11069;48.988;8.450;2023-07-29T05:48:19;18.50;99.90
21815;DHT22;11069;48.988;8.450;2023-07-29T05:50:45;18.50;99.90
21815;DHT22;11069;48.988;8.450;2023-07-29T05:53:11;18.50;99.90
21815;DHT22;11069;48.988;8.450;2023-07-29T05:55:36;18.60;99.90
21815;DHT22;11069;48.988;8.450;2023-07-29T05:58:02;18.60;99.90
21815;DHT22;11069;48.988;8.450;2023-07-29T06:00:31;18.80;99.90
21815;DHT22;11069;48.988;8.450;2023-07-29T06:02:56;18.80;99.90
21815;DHT22;11069;48.988;8.450;2023-07-29T06:05:22;18.80;99.90
21815;DHT22;11069;48.988;8.450;2023-07-29T06:07:48;18.90;99.90
21815;DHT22;11069;48.988;8.450;2023-07-29T06:10:15;18.90;99.90
21815;DHT22;11069;48.988;8.450;2023-07-29T06:12:44;18.90;99.90
21815;DHT22;11069;48.988;8.450;2023-07-29T06:15:10;18.80;99.90
21815;DHT22;11069;48.988;8.450;2023-07-29T06:17:35;18.80;99.90
21815;DHT22;11069;48.988;8.450;2023-07-29T06:20:01;18.80;99.90
21815;DHT22;11069;48.988;8.450;2023-07-29T06:22:27;18.70;99.90
21815;DHT22;11069;48.988;8.450;2023-07-29T06:24:53;18.60;99.90
21815;DHT22;11069;48.988;8.450;2023-07-29T06:27:18;18.70;99.90
21815;DHT22;11069;48.988;8.450;2023-07-29T06:29:44;18.70;99.90
21815;DHT22;11069;48.988;8.450;2023-07-29T06:32:10;18.70;99.90
21815;DHT22;11069;48.988;8.450;2023-07-29T06:34:35;18.90;99.90
21815;DHT22;11069;48.988;8.450;2023-07-29T06:37:01;19.00;99.90
21815;DHT22;11069;48.988;8.450;2023-07-29T06:39:26;19.00;99.90
21815;DHT22;11069;48.988;8.450;2023-07-29T06:41:52;19.00;99.90
21815;DHT22;11069;48.988;8.450;2023-07-29T06:44:17;19.10;99.90
21815;DHT22;11069;48.988;8.450;2023-07-29T06:46:43;19.10;99.90
21815;DHT22;11069;48.988;8.450;2023-07-29T06:49:09;19.20;99.90
21815;DHT22;11069;48.988;8.450;2023-07-29T06:51:34;19.20;99.90
21815;DHT22;11069;48.988;8.450;2023-07-29T06:54:01;19.20;99.90
21815;DHT22;11069;48.988;8.450;2023-07-29T06:56:27;19.20;99.90
21815;DHT22;11069;48.988;8.450;2023-07-29T06:58:53;19.20;99.90
21815;DHT22;11069;48.988;8.450;2023-07-29T07:01:18;19.30;99.90
21815;DHT22;11069;48.988;8.450;2023-07-29T07:03:44;19.30;99.90
21815;DHT22;11069;48.988;8.450;2023-07-29T07:06:09;19.30;99.90
21815;DHT22;11069;48.988;8.450;2023-07-29T07:08:35;19.40;99.90
21815;DHT22;11069;48.988;8.450;2023-07-29T07:11:01;19.40;99.90
21815;DHT22;11069;48.988;8.450;2023-07-29T07:13:26;19.40;99.90
21815;DHT22;11069;48.988;8.450;2023-07-29T07:15:54;19.40;99.90
21815;DHT22;11069;48.988;8.450;2023-07-29T07:18:20;19.50;99.90
21815;DHT22;11069;48.988;8.450;2023-07-29T07:20:49;19.50;99.90
21815;DHT22;11069;48.988;8.450;2023-07-29T07:23:15;19.60;99.90
21815;DHT22;11069;48.988;8.450;2023-07-29T07:25:41;19.80;99.90
21815;DHT22;11069;48.988;8.450;2023-07-29T07:28:08;20.10;99.90
21815;DHT22;11069;48.988;8.450;2023-07-29T07:30:34;20.20;99.90
21815;DHT22;11069;48.988;8.450;2023-07-29T07:32:59;20.20;99.90
21815;DHT22;11069;48.988;8.450;2023-07-29T07:35:25;20.40;99.90
21815;DHT22;11069;48.988;8.450;2023-07-29T07:37:50;20.50;99.90
21815;DHT22;11069;48.988;8.450;2023-07-29T07:40:16;20.70;99.90
21815;DHT22;11069;48.988;8.450;2023-07-29T07:42:41;20.70;99.90
21815;DHT22;11069;48.988;8.450;2023-07-29T07:45:07;20.80;99.90
21815;DHT22;11069;48.988;8.450;2023-07-29T07:47:32;21.10;99.90
21815;DHT22;11069;48.988;8.450;2023-07-29T07:49:58;21.50;99.90
21815;DHT22;11069;48.988;8.450;2023-07-29T07:52:24;21.90;99.90
21815;DHT22;11069;48.988;8.450;2023-07-29T07:54:53;22.20;99.90
21815;DHT22;11069;48.988;8.450;2023-07-29T07:57:21;22.40;99.90
21815;DHT22;11069;48.988;8.450;2023-07-29T07:59:46;22.10;99.90
21815;DHT22;11069;48.988;8.450;2023-07-29T08:02:12;21.90;99.90
21815;DHT22;11069;48.988;8.450;2023-07-29T08:04:38;21.80;99.90
21815;DHT22;11069;48.988;8.450;2023-07-29T08:07:04;21.80;99.90
21815;DHT22;11069;48.988;8.450;2023-07-29T08:09:29;21.80;99.90
21815;DHT22;11069;48.988;8.450;2023-07-29T08:11:55;21.70;99.90
21815;DHT22;11069;48.988;8.450;2023-07-29T08:14:21;21.60;99.90
21815;DHT22;11069;48.988;8.450;2023-07-29T08:16:46;21.50;99.90
21815;DHT22;11069;48.988;8.450;2023-07-29T08:19:12;21.50;99.90
21815;DHT22;11069;48.988;8.450;2023-07-29T08:21:37;21.60;99.90
21815;DHT22;11069;48.988;8.450;2023-07-29T08:24:03;21.70;99.90
21815;DHT22;11069;48.988;8.450;2023-07-29T08:26:29;21.70;99.90
21815;DHT22;11069;48.988;8.450;2023-07-29T08:28:54;21.70;99.90
21815;DHT22;11069;48.988;8.450;2023-07-29T08:31:20;21.50;99.90
21815;DHT22;11069;48.988;8.450;2023-07-29T08:33:46;21.40;99.90
21815;DHT22;11069;48.988;8.450;2023-07-29T08:36:11;21.20;99.90
21815;DHT22;11069;48.988;8.450;2023-07-29T08:38:40;21.00;99.90
21815;DHT22;11069;48.988;8.450;2023-07-29T08:41:16;20.80;99.90
21815;DHT22;11069;48.988;8.450;2023-07-29T08:44:07;20.70;99.90
21815;DHT22;11069;48.988;8.450;2023-07-29T08:46:33;20.60;99.90
21815;DHT22;11069;48.988;8.450;2023-07-29T08:48:59;20.50;99.90
21815;DHT22;11069;48.988;8.450;2023-07-29T08:51:27;20.50;99.90
21815;DHT22;11069;48.988;8.450;2023-07-29T08:53:53;20.40;99.90
21815;DHT22;11069;48.988;8.450;2023-07-29T08:56:19;20.20;99.90
21815;DHT22;11069;48.988;8.450;2023-07-29T08:58:45;20.10;99.90
21815;DHT22;11069;48.988;8.450;2023-07-29T09:01:12;20.10;99.90
21815;DHT22;11069;48.988;8.450;2023-07-29T09:03:37;20.10;99.90
21815;DHT22;11069;48.988;8.450;2023-07-29T09:06:03;20.10;99.90
21815;DHT22;11069;48.988;8.450;2023-07-29T09:08:29;20.20;99.90
21815;DHT22;11069;48.988;8.450;2023-07-29T09:10:55;20.20;99.90
21815;DHT22;11069;48.988;8.450;2023-07-29T09:13:21;20.20;99.90
21815;DHT22;11069;48.988;8.450;2023-07-29T09:15:47;20.20;99.90
21815;DHT22;11069;48.988;8.450;2023-07-29T09:18:19;20.30;99.90
21815;DHT22;11069;48.988;8.450;2023-07-29T09:20:48;20.40;99.90
21815;DHT22;11069;48.988;8.450;2023-07-29T09:23:14;20.40;99.90
21815;DHT22;11069;48.988;8.450;2023-07-29T09:25:40;20.70;99.90
21815;DHT22;11069;48.988;8.450;2023-07-29T09:28:13;21.10;99.90
21815;DHT22;11069;48.988;8.450;2023-07-29T09:30:40;21.70;99.90
21815;DHT22;11069;48.988;8.450;2023-07-29T09:33:06;22.20;99.90
21815;DHT22;11069;48.988;8.450;2023-07-29T09:35:34;22.30;99.90
21815;DHT22;11069;48.988;8.450;2023-07-29T09:38:01;22.20;99.90
21815;DHT22;11069;48.988;8.450;2023-07-29T09:40:26;22.00;99.90
21815;DHT22;11069;48.988;8.450;2023-07-29T09:42:55;22.30;99.90
21815;DHT22;11069;48.988;8.450;2023-07-29T09:45:22;22.50;99.90
21815;DHT22;11069;48.988;8.450;2023-07-29T09:47:48;22.80;99.90
21815;DHT22;11069;48.988;8.450;2023-07-29T09:50:14;22.70;99.90
21815;DHT22;11069;48.988;8.450;2023-07-29T09:52:40;22.40;99.90
21815;DHT22;11069;48.988;8.450;2023-07-29T09:55:06;22.50;99.90
21815;DHT22;11069;48.988;8.450;2023-07-29T09:57:32;23.10;99.90
21815;DHT22;11069;48.988;8.450;2023-07-29T09:59:59;23.60;99.90
21815;DHT22;11069;48.988;8.450;2023-07-29T10:02:24;23.60;99.90
21815;DHT22;11069;48.988;8.450;2023-07-29T10:04:55;23.70;99.90
21815;DHT22;11069;48.988;8.450;2023-07-29T10:07:21;23.50;99.90
21815;DHT22;11069;48.988;8.450;2023-07-29T10:09:47;23.40;99.90
21815;DHT22;11069;48.988;8.450;2023-07-29T10:12:13;23.10;99.90
21815;DHT22;11069;48.988;8.450;2023-07-29T10:14:39;23.00;99.90
21815;DHT22;11069;48.988;8.450;2023-07-29T10:17:05;22.80;99.90
21815;DHT22;11069;48.988;8.450;2023-07-29T10:19:31;22.80;99.90
21815;DHT22;11069;48.988;8.450;2023-07-29T10:21:59;22.70;99.90
21815;DHT22;11069;48.988;8.450;2023-07-29T10:24:30;22.50;99.90
21815;DHT22;11069;48.988;8.450;2023-07-29T10:27:01;22.30;99.90
21815;DHT22;11069;48.988;8.450;2023-07-29T10:29:38;22.30;99.90
21815;DHT22;11069;48.988;8.450;2023-07-29T10:32:04;22.40;99.90
21815;DHT22;11069;48.988;8.450;2023-07-29T10:34:31;22.40;99.90
21815;DHT22;11069;48.988;8.450;2023-07-29T10:36:58;22.70;99.90
21815;DHT22;11069;48.988;8.450;2023-07-29T10:39:25;22.90;99.90
21815;DHT22;11069;48.988;8.450;2023-07-29T10:47:27;23.80;99.90
21815;DHT22;11069;48.988;8.450;2023-07-29T10:49:57;24.10;99.90
21815;DHT22;11069;48.988;8.450;2023-07-29T10:52:39;24.70;99.90
21815;DHT22;11069;48.988;8.450;2023-07-29T10:55:24;24.80;99.90
21815;DHT22;11069;48.988;8.450;2023-07-29T10:57:50;25.20;99.90
21815;DHT22;11069;48.988;8.450;2023-07-29T11:00:18;25.10;99.90
21815;DHT22;11069;48.988;8.450;2023-07-29T11:02:57;25.00;99.90
21815;DHT22;11069;48.988;8.450;2023-07-29T11:05:24;24.90;99.90
21815;DHT22;11069;48.988;8.450;2023-07-29T11:07:50;24.90;99.90
21815;DHT22;11069;48.988;8.450;2023-07-29T11:10:15;24.60;99.90
21815;DHT22;11069;48.988;8.450;2023-07-29T11:12:48;25.00;99.90
21815;DHT22;11069;48.988;8.450;2023-07-29T11:17:59;25.60;99.90
21815;DHT22;11069;48.988;8.450;2023-07-29T11:20:27;25.70;99.90
21815;DHT22;11069;48.988;8.450;2023-07-29T11:22:54;25.90;99.90
21815;DHT22;11069;48.988;8.450;2023-07-29T11:25:22;26.40;99.90
21815;DHT22;11069;48.988;8.450;2023-07-29T11:27:48;26.80;99.90
21815;DHT22;11069;48.988;8.450;2023-07-29T11:30:15;26.60;99.90
21815;DHT22;11069;48.988;8.450;2023-07-29T11:32:43;26.70;99.90
21815;DHT22;11069;48.988;8.450;2023-07-29T11:35:14;26.30;99.90
21815;DHT22;11069;48.988;8.450;2023-07-29T11:37:41;25.60;99.90
21815;DHT22;11069;48.988;8.450;2023-07-29T11:40:07;25.50;99.90
21815;DHT22;11069;48.988;8.450;2023-07-29T11:42:36;25.70;99.90
21815;DHT22;11069;48.988;8.450;2023-07-29T11:45:02;26.00;99.90
21815;DHT22;11069;48.988;8.450;2023-07-29T11:47:29;26.30;99.90
21815;DHT22;11069;48.988;8.450;2023-07-29T11:49:58;26.20;99.90
21815;DHT22;11069;48.988;8.450;2023-07-29T11:52:25;25.80;99.90
21815;DHT22;11069;48.988;8.450;2023-07-29T11:54:52;25.30;99.90
21815;DHT22;11069;48.988;8.450;2023-07-29T11:57:18;25.30;99.90
21815;DHT22;11069;48.988;8.450;2023-07-29T11:59:44;25.50;99.90
21815;DHT22;11069;48.988;8.450;2023-07-29T12:02:13;26.00;99.90
21815;DHT22;11069;48.988;8.450;2023-07-29T12:04:39;26.70;99.90
21815;DHT22;11069;48.988;8.450;2023-07-29T12:07:06;27.30;99.90
21815;DHT22;11069;48.988;8.450;2023-07-29T12:09:33;27.40;99.90
21815;DHT22;11069;48.988;8.450;2023-07-29T12:11:59;27.10;99.90
21815;DHT22;11069;48.988;8.450;2023-07-29T12:14:26;27.40;99.90
21815;DHT22;11069;48.988;8.450;2023-07-29T12:16:52;27.50;99.90
21815;DHT22;11069;48.988;8.450;2023-07-29T12:19:19;27.40;99.90
21815;DHT22;11069;48.988;8.450;2023-07-29T12:21:45;27.80;99.90
21815;DHT22;11069;48.988;8.450;2023-07-29T12:24:13;28.10;99.90
21815;DHT22;11069;48.988;8.450;2023-07-29T12:26:41;28.10;99.00
21815;DHT22;11069;48.988;8.450;2023-07-29T12:29:14;27.80;99.40
21815;DHT22;11069;48.988;8.450;2023-07-29T12:31:39;27.60;99.40
21815;DHT22;11069;48.988;8.450;2023-07-29T12:34:05;27.60;99.90
21815;DHT22;11069;48.988;8.450;2023-07-29T12:37:01;27.80;99.20
21815;DHT22;11069;48.988;8.450;2023-07-29T12:39:29;28.00;99.90
21815;DHT22;11069;48.988;8.450;2023-07-29T12:41:56;28.10;99.50
21815;DHT22;11069;48.988;8.450;2023-07-29T12:44:30;27.90;98.50
21815;DHT22;11069;48.988;8.450;2023-07-29T12:46:55;28.00;97.60
21815;DHT22;11069;48.988;8.450;2023-07-29T12:49:21;27.40;98.70
21815;DHT22;11069;48.988;8.450;2023-07-29T12:51:47;26.70;99.30
21815;DHT22;11069;48.988;8.450;2023-07-29T12:54:13;26.50;99.90
21815;DHT22;11069;48.988;8.450;2023-07-29T12:56:38;26.40;99.90
21815;DHT22;11069;48.988;8.450;2023-07-29T12:59:05;26.60;99.60
21815;DHT22;11069;48.988;8.450;2023-07-29T13:01:31;26.60;99.90
21815;DHT22;11069;48.988;8.450;2023-07-29T13:03:57;27.00;99.90
21815;DHT22;11069;48.988;8.450;2023-07-29T13:06:23;27.50;99.90
21815;DHT22;11069;48.988;8.450;2023-07-29T13:08:48;27.80;99.20
21815;DHT22;11069;48.988;8.450;2023-07-29T13:11:15;27.90;98.80
21815;DHT22;11069;48.988;8.450;2023-07-29T13:13:41;28.40;97.90
21815;DHT22;11069;48.988;8.450;2023-07-29T13:16:06;28.30;99.20
21815;DHT22;11069;48.988;8.450;2023-07-29T13:18:32;28.90;98.40
21815;DHT22;11069;48.988;8.450;2023-07-29T13:20:58;28.90;97.10
21815;DHT22;11069;48.988;8.450;2023-07-29T13:23:25;28.70;98.20
21815;DHT22;11069;48.988;8.450;2023-07-29T13:25:51;28.70;96.30
21815;DHT22;11069;48.988;8.450;2023-07-29T13:28:17;28.50;95.20
21815;DHT22;11069;48.988;8.450;2023-07-29T13:30:44;28.10;95.90
21815;DHT22;11069;48.988;8.450;2023-07-29T13:33:10;27.90;97.70
21815;DHT22;11069;48.988;8.450;2023-07-29T13:35:35;27.80;97.50
21815;DHT22;11069;48.988;8.450;2023-07-29T13:38:01;27.50;96.60
21815;DHT22;11069;48.988;8.450;2023-07-29T13:40:27;27.70;98.70
21815;DHT22;11069;48.988;8.450;2023-07-29T13:42:53;28.10;97.10
21815;DHT22;11069;48.988;8.450;2023-07-29T13:45:19;27.90;96.10
21815;DHT22;11069;48.988;8.450;2023-07-29T13:47:44;28.10;97.30
21815;DHT22;11069;48.988;8.450;2023-07-29T13:50:10;28.20;95.90
21815;DHT22;11069;48.988;8.450;2023-07-29T13:52:38;28.20;97.40
21815;DHT22;11069;48.988;8.450;2023-07-29T13:55:04;28.40;98.50
21815;DHT22;11069;48.988;8.450;2023-07-29T13:57:31;28.40;95.70
21815;DHT22;11069;48.988;8.450;2023-07-29T13:59:56;28.50;95.60
21815;DHT22;11069;48.988;8.450;2023-07-29T14:02:22;28.60;95.50
21815;DHT22;11069;48.988;8.450;2023-07-29T14:04:48;28.50;95.70
21815;DHT22;11069;48.988;8.450;2023-07-29T14:07:13;28.40;95.90
21815;DHT22;11069;48.988;8.450;2023-07-29T14:09:39;28.50;95.20
21815;DHT22;11069;48.988;8.450;2023-07-29T14:12:05;28.40;97.90
21815;DHT22;11069;48.988;8.450;2023-07-29T14:14:31;28.60;95.30
21815;DHT22;11069;48.988;8.450;2023-07-29T14:16:56;29.00;96.10
21815;DHT22;11069;48.988;8.450;2023-07-29T14:19:23;29.20;94.70
21815;DHT22;11069;48.988;8.450;2023-07-29T14:21:48;29.20;94.70
21815;DHT22;11069;48.988;8.450;2023-07-29T14:24:14;28.60;95.60
21815;DHT22;11069;48.988;8.450;2023-07-29T14:26:41;28.90;94.90
21815;DHT22;11069;48.988;8.450;2023-07-29T14:29:06;29.60;95.30
21815;DHT22;11069;48.988;8.450;2023-07-29T14:31:32;29.50;92.60
21815;DHT22;11069;48.988;8.450;2023-07-29T14:34:04;29.30;94.30
21815;DHT22;11069;48.988;8.450;2023-07-29T14:36:29;29.00;93.90
21815;DHT22;11069;48.988;8.450;2023-07-29T14:38:55;28.90;93.40
21815;DHT22;11069;48.988;8.450;2023-07-29T14:41:20;28.90;95.00
21815;DHT22;11069;48.988;8.450;2023-07-29T14:43:46;28.50;93.70
21815;DHT22;11069;48.988;8.450;2023-07-29T14:46:12;28.80;93.80
21815;DHT22;11069;48.988;8.450;2023-07-29T14:48:37;28.60;94.40
21815;DHT22;11069;48.988;8.450;2023-07-29T14:51:03;27.80;94.80
21815;DHT22;11069;48.988;8.450;2023-07-29T14:53:28;27.00;95.50
21815;DHT22;11069;48.988;8.450;2023-07-29T14:55:54;26.70;96.10
21815;DHT22;11069;48.988;8.450;2023-07-29T14:58:20;26.40;96.80
21815;DHT22;11069;48.988;8.450;2023-07-29T15:00:45;26.40;97.40
21815;DHT22;11069;48.988;8.450;2023-07-29T15:03:11;26.40;97.80
21815;DHT22;11069;48.988;8.450;2023-07-29T15:05:36;26.20;97.80
21815;DHT22;11069;48.988;8.450;2023-07-29T15:08:02;26.30;98.70
21815;DHT22;11069;48.988;8.450;2023-07-29T15:10:27;26.40;97.70
21815;DHT22;11069;48.988;8.450;2023-07-29T15:12:53;26.40;98.10
21815;DHT22;11069;48.988;8.450;2023-07-29T15:15:18;26.50;98.30
21815;DHT22;11069;48.988;8.450;2023-07-29T15:17:44;27.30;97.90
21815;DHT22;11069;48.988;8.450;2023-07-29T15:20:10;27.90;96.90
21815;DHT22;11069;48.988;8.450;2023-07-29T15:22:36;28.20;95.70
21815;DHT22;11069;48.988;8.450;2023-07-29T15:25:02;28.00;95.80
21815;DHT22;11069;48.988;8.450;2023-07-29T15:27:28;28.10;94.80
21815;DHT22;11069;48.988;8.450;2023-07-29T15:29:54;28.20;94.50
21815;DHT22;11069;48.988;8.450;2023-07-29T15:32:20;28.30;95.30
21815;DHT22;11069;48.988;8.450;2023-07-29T15:34:47;28.20;95.10
21815;DHT22;11069;48.988;8.450;2023-07-29T15:37:13;28.00;95.30
21815;DHT22;11069;48.988;8.450;2023-07-29T15:39:39;28.00;95.60